Time;durP1;ratioP1;P1;durP2;ratioP2;P2;SDS_P1;SDS_P2;PMS_P1;PMS_P2;Temp;Humidity;BMP_temperature;BMP_pressure;BME280_temperature;BME280_humidity;BME280_pressure;Samples;Min_cycle;Max_cycle;Signal;HPM_P1;HPM_P2
2023/04/28 00:01:40;;;;;;;;;41.33;32.67;;;;;3.32;88.39;98883.97;4961278;28;107051;-72
2023/04/28 00:04:15;;;;;;;;;37.00;29.67;;;;;3.31;88.52;98882.28;4958772;28;101772;-71
2023/04/28 00:06:54;;;;;;;;;25.00;22.67;;;;;3.34;89.33;98887.31;4964240;28;101545;-72
2023/04/28 00:09:31;;;;;;;;;39.67;30.33;;;;;3.29;89.98;98885.09;4974313;28;102377;-71
2023/04/28 00:12:17;;;;;;;;;29.67;28.00;;;;;3.30;90.68;98876.09;4960695;28;101938;-72
2023/04/28 00:15:04;;;;;;;;;27.67;23.67;;;;;3.34;90.37;98882.81;4963035;28;101627;-72
2023/04/28 00:17:43;;;;;;;;;21.00;18.00;;;;;3.40;90.22;98886.75;4968902;27;101926;-71
2023/04/28 00:20:11;;;;;;;;;21.00;18.75;;;;;3.40;91.03;98890.25;4966783;28;103371;-71
2023/04/28 00:22:38;;;;;;;;;39.33;32.33;;;;;3.36;92.18;98886.22;4968684;28;101701;-72
2023/04/28 00:25:05;;;;;;;;;38.00;26.33;;;;;3.37;91.55;98887.03;4969111;28;101713;-71
2023/04/28 00:27:33;;;;;;;;;33.67;31.67;;;;;3.37;90.72;98879.88;4969109;28;101853;-72
2023/04/28 00:30:01;;;;;;;;;29.00;28.33;;;;;3.34;92.01;98888.16;4960343;28;103390;-70
2023/04/28 00:32:28;;;;;;;;;46.67;38.00;;;;;3.36;90.67;98886.22;4967784;28;101864;-72
2023/04/28 00:34:56;;;;;;;;;39.00;33.00;;;;;3.38;89.47;98886.88;4952614;28;101861;-72
2023/04/28 00:37:23;;;;;;;;;30.33;19.33;;;;;3.38;89.80;98884.22;4961321;27;101802;-71
2023/04/28 00:39:56;;;;;;;;;42.33;33.00;;;;;3.29;90.28;98879.75;4969465;27;103354;-71
2023/04/28 00:42:23;;;;;;;;;36.00;28.00;;;;;3.29;89.68;98881.63;4955877;28;101791;-72
2023/04/28 00:44:50;;;;;;;;;37.00;34.33;;;;;3.13;90.33;98868.88;4958178;27;101906;-71
2023/04/28 00:47:18;;;;;;;;;59.67;42.00;;;;;3.14;91.79;98870.56;4964677;28;101903;-72
2023/04/28 00:49:48;;;;;;;;;43.33;38.00;;;;;3.19;92.61;98876.31;4960430;28;104626;-71
2023/04/28 00:52:15;;;;;;;;;49.00;37.00;;;;;3.21;92.94;98876.97;4956630;28;102942;-72
2023/04/28 00:54:42;;;;;;;;;55.00;42.33;;;;;3.08;93.88;98879.16;4967365;28;101556;-72
2023/04/28 00:57:09;;;;;;;;;65.00;51.33;;;;;2.90;93.22;98859.53;4967716;28;101517;-72
2023/04/28 00:59:38;;;;;;;;;66.33;50.33;;;;;2.99;93.63;98882.72;4959526;27;107987;-72
2023/04/28 01:02:06;;;;;;;;;63.00;46.33;;;;;3.04;94.25;98877.78;4957453;28;102081;-72
2023/04/28 01:04:34;;;;;;;;;54.33;42.00;;;;;3.03;93.70;98870.75;4953390;27;101444;-71
2023/04/28 01:07:10;;;;;;;;;61.67;44.00;;;;;3.10;93.20;98878.03;4944630;28;101636;-71
2023/04/28 01:09:46;;;;;;;;;53.67;43.00;;;;;2.99;92.84;98866.69;4957302;28;106895;-71
2023/04/28 01:12:37;;;;;;;;;;;;;;;;;;;;;
2023/04/28 01:15:23;;;;;;;;;61.00;48.33;;;;;2.90;92.24;98889.78;4961555;28;101755;-72
2023/04/28 01:18:09;;;;;;;;;63.00;47.67;;;;;2.90;92.37;98883.59;4955767;28;101797;-72
2023/04/28 01:20:46;;;;;;;;;42.00;39.67;;;;;2.90;91.71;98875.56;4949047;28;109485;-71
2023/04/28 01:23:14;;;;;;;;;15.33;6.00;;;;;2.93;90.30;98878.78;4953498;27;101835;-71
2023/04/28 01:25:42;;;;;;;;;41.00;31.33;;;;;2.93;90.47;98883.28;4964017;28;101867;-72
2023/04/28 01:28:10;;;;;;;;;36.33;28.67;;;;;2.89;89.96;98876.56;4967193;28;101767;-71
2023/04/28 01:30:37;;;;;;;;;31.00;25.00;;;;;2.85;89.93;98880.50;4945633;28;103385;-71
2023/04/28 01:33:04;;;;;;;;;26.67;25.33;;;;;2.74;90.31;98873.53;4962905;27;101662;-72
2023/04/28 01:35:31;;;;;;;;;17.25;15.00;;;;;2.76;91.41;98878.69;4963765;28;101666;-71
2023/04/28 01:37:58;;;;;;;;;24.00;19.67;;;;;2.58;92.66;98873.28;4968815;28;101591;-72
2023/04/28 01:40:25;;;;;;;;;40.67;35.00;;;;;2.43;93.89;98880.06;4963341;27;103368;-71
2023/04/28 01:42:52;;;;;;;;;32.00;27.00;;;;;2.44;94.96;98882.56;4962599;28;101833;-72
2023/04/28 01:45:19;;;;;;;;;45.00;39.00;;;;;2.37;96.29;98876.13;4962640;28;101847;-71
2023/04/28 01:47:46;;;;;;;;;46.67;38.00;;;;;2.36;96.34;98884.28;4959878;28;102621;-71
2023/04/28 01:50:13;;;;;;;;;27.33;26.00;;;;;2.39;96.10;98879.47;4960523;28;103416;-71
2023/04/28 01:52:40;;;;;;;;;29.33;26.00;;;;;2.37;95.45;98870.81;4965030;28;101817;-71
2023/04/28 01:55:07;;;;;;;;;28.33;22.33;;;;;2.45;93.63;98873.59;4971180;28;101587;-71
2023/04/28 01:57:35;;;;;;;;;20.67;19.00;;;;;2.42;93.61;98878.38;4964738;28;101493;-71
2023/04/28 02:00:03;;;;;;;;;21.50;15.00;;;;;2.50;93.83;98884.69;4960996;28;103357;-71
2023/04/28 02:02:30;;;;;;;;;14.00;9.00;;;;;2.44;93.95;98865.72;4964303;28;102029;-71
2023/04/28 02:04:57;;;;;;;;;12.75;9.75;;;;;2.27;94.05;98853.97;4955586;28;101983;-72
2023/04/28 02:07:25;;;;;;;;;16.00;11.25;;;;;2.56;93.69;98884.13;4966220;28;101629;-71
2023/04/28 02:09:52;;;;;;;;;10.00;10.00;;;;;2.60;93.36;98882.84;4959352;28;103301;-70
2023/04/28 02:12:19;;;;;;;;;10.75;9.25;;;;;2.61;92.81;98879.16;4954892;28;101727;-71
2023/04/28 02:14:46;;;;;;;;;6.75;5.75;;;;;2.61;92.91;98884.50;4961191;28;101832;-71
2023/04/28 02:17:12;;;;;;;;;11.00;9.00;;;;;2.67;93.22;98877.75;4966026;28;101879;-71
2023/04/28 02:19:39;;;;;;;;;15.33;14.00;;;;;2.68;93.12;98882.94;4952506;28;103447;-71
2023/04/28 02:22:06;;;;;;;;;27.00;26.00;;;;;2.53;92.78;98855.03;4969381;28;101858;-71
2023/04/28 02:24:35;;;;;;;;;35.33;31.67;;;;;2.62;93.48;98880.84;4969489;27;102547;-71
2023/04/28 02:27:04;;;;;;;;;32.00;31.00;;;;;2.63;95.03;98877.19;4965638;27;101907;-71
2023/04/28 02:29:31;;;;;;;;;37.00;27.33;;;;;2.62;94.51;98880.84;4956798;28;103526;-70
2023/04/28 02:31:58;;;;;;;;;32.67;27.00;;;;;2.59;94.76;98873.13;4967503;28;102025;-73
2023/04/28 02:34:25;;;;;;;;;40.33;35.00;;;;;2.52;94.48;98868.53;4963173;28;101703;-72
2023/04/28 02:36:52;;;;;;;;;39.00;33.67;;;;;2.51;93.05;98867.69;4961096;28;101679;-72
2023/04/28 02:39:21;;;;;;;;;39.67;32.67;;;;;2.41;92.28;98850.84;4960722;28;103313;-70
2023/04/28 02:41:48;;;;;;;;;28.33;26.33;;;;;2.39;91.63;98863.47;4968220;28;101646;-72
2023/04/28 02:44:15;;;;;;;;;28.67;24.00;;;;;2.32;91.42;98870.38;4967279;28;102569;-72
2023/04/28 02:46:42;;;;;;;;;30.00;23.00;;;;;2.27;91.07;98863.78;4965895;28;101510;-72
2023/04/28 02:49:09;;;;;;;;;22.00;18.67;;;;;2.22;91.59;98856.22;4971994;28;103652;-72
2023/04/28 02:51:36;;;;;;;;;18.67;15.67;;;;;2.18;91.37;98849.47;4957532;28;101642;-72
2023/04/28 02:54:03;;;;;;;;;14.00;10.50;;;;;2.21;91.48;98855.34;4953371;28;101752;-71
2023/04/28 02:56:30;;;;;;;;;7.00;5.25;;;;;2.23;91.63;98863.22;4948772;28;101683;-71
2023/04/28 02:58:57;;;;;;;;;7.50;6.25;;;;;2.24;91.71;98855.09;4959879;28;103351;-71
2023/04/28 03:01:24;;;;;;;;;9.67;9.00;;;;;2.20;90.06;98844.84;4960471;28;102027;-71
2023/04/28 03:03:51;;;;;;;;;9.00;5.25;;;;;2.30;90.94;98858.19;4960582;28;102257;-72
2023/04/28 03:06:19;;;;;;;;;6.00;5.50;;;;;2.25;90.57;98847.94;4945886;28;101635;-71
2023/04/28 03:08:46;;;;;;;;;10.75;9.00;;;;;2.33;91.12;98861.41;4962908;28;103532;-71
2023/04/28 03:11:13;;;;;;;;;7.00;6.00;;;;;2.32;89.66;98846.38;4961110;28;106732;-70
2023/04/28 03:13:40;;;;;;;;;6.75;5.75;;;;;2.38;89.49;98840.47;4961217;27;102511;-72
2023/04/28 03:16:07;;;;;;;;;7.25;6.00;;;;;2.42;89.39;98846.34;4959381;28;101962;-71
2023/04/28 03:18:34;;;;;;;;;9.00;6.00;;;;;2.43;89.03;98848.84;4982954;28;103501;-72
2023/04/28 03:21:01;;;;;;;;;9.00;3.50;;;;;2.41;88.83;98850.00;4959644;28;105954;-70
2023/04/28 03:23:28;;;;;;;;;1.50;1.50;;;;;2.40;89.29;98858.97;4961965;28;101873;-71
2023/04/28 03:25:55;;;;;;;;;9.00;8.50;;;;;2.37;88.91;98864.63;4961134;28;101967;-72
2023/04/28 03:28:22;;;;;;;;;11.00;9.00;;;;;2.34;89.15;98871.09;4968450;28;103349;-71
2023/04/28 03:30:49;;;;;;;;;8.00;6.25;;;;;2.34;88.81;98863.09;4969688;28;101752;-72
2023/04/28 03:33:16;;;;;;;;;6.00;5.00;;;;;2.33;88.36;98861.41;4968092;28;102373;-73
2023/04/28 03:35:43;;;;;;;;;6.00;6.00;;;;;2.27;89.08;98853.97;4964442;28;101942;-72
2023/04/28 03:38:10;;;;;;;;;10.25;8.00;;;;;2.22;88.52;98854.38;4963928;28;103352;-72
2023/04/28 03:40:37;;;;;;;;;11.00;10.00;;;;;2.20;88.81;98845.69;4969261;28;101454;-72
2023/04/28 03:43:04;;;;;;;;;9.33;9.00;;;;;2.23;88.71;98844.56;4965890;28;101695;-72
2023/04/28 03:45:31;;;;;;;;;10.25;9.00;;;;;2.26;88.54;98846.94;4967679;28;101827;-71
2023/04/28 03:47:58;;;;;;;;;8.00;6.25;;;;;2.24;88.27;98846.25;4964859;28;103325;-72
2023/04/28 03:50:25;;;;;;;;;11.00;9.50;;;;;2.29;87.76;98837.81;4968678;28;101681;-73
2023/04/28 03:52:52;;;;;;;;;13.00;10.25;;;;;2.39;88.47;98842.13;4961860;28;101645;-72
2023/04/28 03:55:19;;;;;;;;;10.75;10.00;;;;;2.47;87.28;98833.44;4967315;28;101893;-72
2023/04/28 03:57:46;;;;;;;;;9.25;6.50;;;;;2.52;87.36;98840.00;4966806;28;103358;-72
2023/04/28 04:00:13;;;;;;;;;8.50;7.00;;;;;2.60;86.64;98840.13;4973612;28;101573;-71
2023/04/28 04:02:41;;;;;;;;;6.50;5.00;;;;;2.66;86.41;98836.84;4969518;28;101542;-72
2023/04/28 04:05:08;;;;;;;;;10.50;10.00;;;;;2.72;86.11;98839.94;4962334;28;101794;-71
2023/04/28 04:07:36;;;;;;;;;8.00;6.50;;;;;2.80;85.88;98838.22;4966578;28;103723;-72
2023/04/28 04:10:03;;;;;;;;;14.00;13.33;;;;;2.92;86.33;98844.22;4952775;28;102970;-73
2023/04/28 04:12:30;;;;;;;;;10.25;9.00;;;;;2.98;86.22;98844.47;4929334;28;101968;-73
2023/04/28 04:14:57;;;;;;;;;15.00;14.00;;;;;3.04;86.28;98843.88;4969447;28;101545;-73
2023/04/28 04:17:24;;;;;;;;;15.75;11.75;;;;;3.13;85.39;98842.16;4967960;28;103377;-72
2023/04/28 04:19:51;;;;;;;;;10.00;8.25;;;;;3.18;84.83;98837.22;4955845;28;102239;-72
2023/04/28 04:22:18;;;;;;;;;15.75;11.75;;;;;3.35;84.23;98841.75;4958099;28;101835;-73
2023/04/28 04:24:45;;;;;;;;;11.50;10.50;;;;;3.45;83.10;98847.88;4969340;28;101597;-73
2023/04/28 04:27:12;;;;;;;;;11.75;10.75;;;;;3.60;81.96;98862.41;4959812;28;102415;-73
2023/04/28 04:29:39;;;;;;;;;10.00;9.75;;;;;3.74;81.55;98854.88;4959492;28;101732;-73
2023/04/28 04:32:06;;;;;;;;;9.75;7.00;;;;;3.86;81.10;98856.34;4954200;28;101859;-73
2023/04/28 04:34:33;;;;;;;;;9.75;9.25;;;;;4.03;80.22;98852.81;4954842;28;101859;-72
2023/04/28 04:37:00;;;;;;;;;15.25;13.00;;;;;4.18;80.58;98850.44;4962433;28;103411;-74
2023/04/28 04:39:27;;;;;;;;;20.75;15.75;;;;;4.25;80.48;98855.00;4966964;28;101659;-73
2023/04/28 04:41:54;;;;;;;;;21.75;18.50;;;;;4.35;79.79;98844.22;4966723;28;101892;-74
2023/04/28 04:44:21;;;;;;;;;22.50;20.75;;;;;4.53;79.12;98861.09;4962132;28;101551;-73
2023/04/28 04:46:48;;;;;;;;;20.50;17.25;;;;;4.67;78.14;98857.00;4961621;28;103465;-74
2023/04/28 04:49:15;;;;;;;;;17.50;16.00;;;;;4.79;77.86;98856.56;4957211;28;101822;-72
2023/04/28 04:51:42;;;;;;;;;25.25;21.00;;;;;4.97;77.94;98856.50;4965899;28;102166;-71
2023/04/28 04:54:09;;;;;;;;;23.75;22.25;;;;;5.31;77.56;98857.31;4970255;28;101384;-73
2023/04/28 04:56:36;;;;;;;;;46.33;38.00;;;;;6.05;75.09;98855.69;4967464;28;108235;-75
2023/04/28 04:59:03;;;;;;;;;57.67;44.00;;;;;6.75;73.59;98854.19;4959279;28;101863;-74
2023/04/28 05:01:30;;;;;;;;;54.00;43.00;;;;;7.25;70.58;98855.72;4966790;28;101981;-76
2023/04/28 05:03:57;;;;;;;;;55.67;43.67;;;;;7.55;70.12;98852.22;4964773;28;101535;-77
2023/04/28 05:06:24;;;;;;;;;41.00;37.00;;;;;7.79;68.33;98859.34;4614723;28;10000586;-76
2023/04/28 05:08:51;;;;;;;;;33.75;30.50;;;;;8.15;66.70;98862.31;4963053;28;101762;-77
2023/04/28 05:11:18;;;;;;;;;39.50;35.00;;;;;8.48;65.30;98855.66;4953645;28;101612;-76
2023/04/28 05:13:45;;;;;;;;;42.00;34.25;;;;;8.66;65.18;98858.03;4962771;28;101697;-76
2023/04/28 05:16:12;;;;;;;;;22.50;21.75;;;;;8.94;62.98;98862.66;4965907;28;101922;-74
2023/04/28 05:18:39;;;;;;;;;54.75;43.75;;;;;9.25;63.21;98850.84;4949106;28;104809;-76
2023/04/28 05:21:06;;;;;;;;;56.25;45.25;;;;;9.58;62.72;98851.28;4884282;28;101976;-76
2023/04/28 05:23:33;;;;;;;;;57.75;47.25;;;;;9.84;59.97;98857.84;4952994;28;101586;-77
2023/04/28 05:26:00;;;;;;;;;56.50;43.75;;;;;9.92;57.65;98853.34;4965299;28;101770;-77
2023/04/28 05:28:27;;;;;;;;;58.75;48.00;;;;;10.39;59.18;98861.78;4962506;28;103371;-76
2023/04/28 05:30:54;;;;;;;;;51.00;37.50;;;;;10.45;54.58;98861.00;4957094;28;101932;-77
2023/04/28 05:33:22;;;;;;;;;48.75;39.75;;;;;11.04;59.07;98863.34;4962014;28;101932;-78
2023/04/28 05:35:50;;;;;;;;;44.50;38.50;;;;;11.70;54.16;98863.75;4967966;28;101891;-76
2023/04/28 05:38:18;;;;;;;;;41.25;35.25;;;;;11.94;52.61;98860.50;4963860;28;103502;-76
2023/04/28 05:40:47;;;;;;;;;41.50;36.00;;;;;12.46;54.10;98860.66;4960896;28;101645;-77
2023/04/28 05:43:14;;;;;;;;;38.00;30.25;;;;;13.01;50.47;98853.16;4963127;28;101680;-77
2023/04/28 05:45:41;;;;;;;;;35.50;32.25;;;;;13.36;47.27;98856.47;4975630;28;101788;-78
2023/04/28 05:48:08;;;;;;;;;30.00;25.00;;;;;13.55;45.75;98846.59;4961414;28;109041;-78
2023/04/28 05:50:35;;;;;;;;;28.50;25.25;;;;;13.74;45.63;98857.38;4967937;28;101935;-77
2023/04/28 05:53:04;;;;;;;;;29.25;25.25;;;;;13.85;43.85;98851.28;4959672;28;101685;-77
2023/04/28 05:55:32;;;;;;;;;36.50;32.50;;;;;13.90;46.71;98847.91;4957100;28;101554;-76
2023/04/28 05:57:59;;;;;;;;;29.00;27.00;;;;;14.19;44.35;98863.63;4967028;28;103361;-78
2023/04/28 06:00:26;;;;;;;;;25.50;23.25;;;;;14.38;43.95;98850.16;4959337;28;101596;-77
2023/04/28 06:02:53;;;;;;;;;27.50;25.75;;;;;14.60;42.75;98851.47;4962141;28;101894;-77
2023/04/28 06:05:21;;;;;;;;;27.75;25.00;;;;;14.73;43.35;98852.22;4964491;28;101881;-76
2023/04/28 06:07:49;;;;;;;;;19.25;18.00;;;;;14.71;40.84;98845.34;4964526;28;102816;-77
2023/04/28 06:10:21;;;;;;;;;22.25;19.75;;;;;14.67;43.43;98844.13;4969683;28;101721;-77
2023/04/28 06:12:48;;;;;;;;;18.50;17.00;;;;;14.41;41.27;98856.00;4962614;28;101811;-77
2023/04/28 06:15:15;;;;;;;;;19.25;18.75;;;;;14.33;43.33;98850.78;4956479;28;101939;-75
2023/04/28 06:17:42;;;;;;;;;23.50;21.75;;;;;14.35;46.10;98847.88;4957215;28;103345;-75
2023/04/28 06:20:12;;;;;;;;;19.50;18.25;;;;;14.08;42.51;98809.97;4968321;28;101617;-77
2023/04/28 06:22:40;;;;;;;;;19.00;16.00;;;;;14.00;43.35;98850.16;4962391;28;101566;-77
2023/04/28 06:25:07;;;;;;;;;19.25;17.75;;;;;14.08;44.44;98850.75;4960042;28;102618;-76
2023/04/28 06:27:34;;;;;;;;;21.00;18.75;;;;;14.22;45.13;98852.34;4965545;28;104080;-77
2023/04/28 06:30:01;;;;;;;;;20.25;19.00;;;;;14.50;42.87;98849.25;4964945;28;101521;-77
2023/04/28 06:32:28;;;;;;;;;14.25;13.25;;;;;14.72;42.02;98857.91;4963462;28;102041;-76
2023/04/28 06:34:55;;;;;;;;;10.00;10.00;;;;;14.86;40.50;98845.81;4965202;28;101614;-75
2023/04/28 06:37:24;;;;;;;;;9.75;9.00;;;;;14.75;41.98;98835.66;4961053;28;103380;-76
2023/04/28 06:39:51;;;;;;;;;13.00;12.00;;;;;14.74;41.25;98848.44;4963799;28;101690;-78
2023/04/28 06:42:19;;;;;;;;;13.50;13.25;;;;;14.85;41.76;98849.63;4965825;28;101980;-77
2023/04/28 06:44:46;;;;;;;;;14.75;14.00;;;;;14.96;41.98;98850.78;4960863;28;101977;-76
2023/04/28 06:47:13;;;;;;;;;20.25;19.00;;;;;15.28;42.62;98837.88;4957585;28;103356;-77
2023/04/28 06:49:42;;;;;;;;;14.25;11.75;;;;;15.65;39.96;98842.34;4969314;28;101305;-77
2023/04/28 06:52:09;;;;;;;;;17.75;15.00;;;;;15.66;40.56;98827.66;4961255;28;101500;-76
2023/04/28 06:54:37;;;;;;;;;14.50;13.25;;;;;15.27;38.20;98838.94;4962568;28;102329;-78
2023/04/28 06:57:04;;;;;;;;;11.00;10.25;;;;;15.27;40.88;98833.50;4963060;28;103372;-78
2023/04/28 06:59:31;;;;;;;;;11.25;10.00;;;;;15.25;39.68;98835.63;4955804;28;102508;-78
2023/04/28 07:01:58;;;;;;;;;7.75;7.75;;;;;15.22;38.51;98830.63;4967182;28;103012;-76
2023/04/28 07:04:26;;;;;;;;;8.50;8.50;;;;;15.06;41.34;98829.31;4960967;28;102405;-77
2023/04/28 07:06:53;;;;;;;;;9.25;8.50;;;;;15.18;40.02;98822.06;4956505;28;103792;-76
2023/04/28 07:09:20;;;;;;;;;9.50;9.25;;;;;15.05;39.12;98824.91;4959606;28;101635;-76
2023/04/28 07:11:47;;;;;;;;;10.50;10.00;;;;;14.36;38.05;98806.06;4962113;28;103799;-76
2023/04/28 07:14:14;;;;;;;;;9.00;7.50;;;;;14.58;40.88;98831.84;4969729;28;102308;-76
2023/04/28 07:16:42;;;;;;;;;8.00;7.00;;;;;14.65;41.00;98825.28;4976510;28;103081;-77
2023/04/28 07:19:09;;;;;;;;;7.00;6.25;;;;;14.62;40.16;98824.91;4955034;28;101626;-78
2023/04/28 07:21:36;;;;;;;;;5.50;5.25;;;;;14.61;40.63;98828.66;4965136;28;101593;-76
2023/04/28 07:24:03;;;;;;;;;4.50;4.50;;;;;14.68;39.26;98821.25;4956733;28;101600;-75
2023/04/28 07:26:32;;;;;;;;;5.00;5.00;;;;;14.71;38.95;98829.00;4959717;28;103623;-77
2023/04/28 07:28:59;;;;;;;;;4.75;4.75;;;;;14.89;38.04;98828.22;4967613;28;101558;-77
2023/04/28 07:31:26;;;;;;;;;5.00;3.75;;;;;15.03;38.59;98814.28;4958483;28;101738;-76
2023/04/28 07:33:54;;;;;;;;;3.00;2.75;;;;;15.08;39.07;98825.28;4971134;28;106973;-77
2023/04/28 07:36:21;;;;;;;;;4.75;3.75;;;;;14.97;39.58;98806.16;4966649;28;102432;-77
2023/04/28 07:38:48;;;;;;;;;3.50;3.00;;;;;15.12;38.38;98814.81;4965601;28;102282;-76
2023/04/28 07:41:16;;;;;;;;;3.25;3.25;;;;;15.14;39.09;98813.50;4966909;28;101551;-76
2023/04/28 07:43:43;;;;;;;;;5.00;3.00;;;;;15.12;37.58;98810.19;4959820;28;101949;-75
2023/04/28 07:46:11;;;;;;;;;3.75;3.75;;;;;15.09;36.95;98810.63;4967160;28;103451;-76
2023/04/28 07:48:40;;;;;;;;;5.00;3.00;;;;;15.06;36.99;98804.81;4972923;28;102184;-77
2023/04/28 07:51:07;;;;;;;;;4.25;4.25;;;;;15.24;37.70;98807.56;4971165;28;101368;-76
2023/04/28 07:53:35;;;;;;;;;3.00;3.00;;;;;15.22;38.35;98804.19;4969470;28;101548;-76
2023/04/28 07:56:02;;;;;;;;;2.00;2.00;;;;;15.38;39.26;98810.97;4968706;28;102193;-77
2023/04/28 07:58:30;;;;;;;;;7.50;6.75;;;;;15.05;37.45;98806.69;4970742;28;101749;-76
2023/04/28 08:00:57;;;;;;;;;5.25;5.00;;;;;14.68;36.90;98803.03;4973090;28;101676;-77
2023/04/28 08:03:24;;;;;;;;;5.00;5.00;;;;;14.75;37.15;98813.91;4979715;28;101908;-77
2023/04/28 08:05:51;;;;;;;;;5.75;4.75;;;;;14.73;37.91;98810.53;4963833;28;103524;-76
2023/04/28 08:08:18;;;;;;;;;4.00;3.00;;;;;14.75;35.72;98811.16;4969535;28;101503;-77
2023/04/28 08:10:45;;;;;;;;;5.00;4.75;;;;;14.76;34.67;98804.69;4969340;28;101625;-76
2023/04/28 08:13:12;;;;;;;;;3.75;3.75;;;;;14.63;37.74;98800.16;4960080;28;101694;-75
2023/04/28 08:15:39;;;;;;;;;6.25;6.00;;;;;14.64;37.17;98799.09;4965506;28;107864;-76
2023/04/28 08:18:06;;;;;;;;;2.00;2.00;;;;;14.89;35.74;98795.56;4964677;28;101571;-76
2023/04/28 08:20:33;;;;;;;;;3.25;3.25;;;;;15.09;35.75;98804.34;4963619;28;101645;-78
2023/04/28 08:23:00;;;;;;;;;3.00;2.00;;;;;15.15;33.77;98798.84;4969446;28;101700;-77
2023/04/28 08:25:27;;;;;;;;;3.75;2.25;;;;;15.13;34.05;98789.22;4962749;28;103335;-76
2023/04/28 08:27:55;;;;;;;;;3.00;3.00;;;;;15.10;33.82;98785.06;4956671;28;102394;-76
2023/04/28 08:30:23;;;;;;;;;2.75;2.50;;;;;15.27;34.34;98789.91;4962949;28;101579;-76
2023/04/28 08:32:50;;;;;;;;;2.25;1.75;;;;;15.31;33.08;98791.16;4974054;28;101624;-75
2023/04/28 08:35:18;;;;;;;;;2.00;2.00;;;;;15.45;31.52;98779.00;4967844;28;103360;-75
2023/04/28 08:37:48;;;;;;;;;2.00;1.50;;;;;15.55;35.13;98784.78;4969542;28;101956;-76
2023/04/28 08:40:15;;;;;;;;;1.00;1.00;;;;;15.57;31.53;98785.41;4963111;28;101854;-75
2023/04/28 08:42:45;;;;;;;;;1.00;1.00;;;;;15.48;32.34;98781.31;4966562;28;101420;-78
2023/04/28 08:45:13;;;;;;;;;2.75;2.00;;;;;15.31;30.66;98780.25;4968352;28;108212;-77
2023/04/28 08:47:44;;;;;;;;;1.25;1.25;;;;;15.48;31.24;98779.41;4964254;28;101765;-77
2023/04/28 08:50:13;;;;;;;;;2.00;2.00;;;;;15.34;30.94;98780.63;4964337;28;101613;-77
2023/04/28 08:52:41;;;;;;;;;6.25;6.25;;;;;15.44;31.61;98767.31;4957835;28;101647;-78
2023/04/28 08:55:11;;;;;;;;;6.50;6.00;;;;;14.47;32.09;98761.78;4964532;28;107782;-77
2023/04/28 08:57:48;;;;;;;;;4.00;3.50;;;;;14.96;33.98;98761.75;4965815;28;102105;-77
2023/04/28 09:00:15;;;;;;;;;5.50;5.00;;;;;14.95;33.73;98764.72;4963004;28;101640;-76
2023/04/28 09:02:42;;;;;;;;;3.25;3.00;;;;;15.05;33.25;98759.56;4969791;28;101467;-76
2023/04/28 09:05:11;;;;;;;;;2.50;2.50;;;;;15.30;34.71;98765.78;4950152;28;108125;-77
2023/04/28 09:07:40;;;;;;;;;1.75;1.75;;;;;15.47;34.51;98755.09;4962941;28;101470;-76
2023/04/28 09:10:25;;;;;;;;;3.00;2.00;;;;;15.60;34.17;98757.69;4969297;28;101583;-77
2023/04/28 09:12:54;;;;;;;;;3.50;3.25;;;;;15.34;33.02;98758.00;4968195;28;101673;-77
2023/04/28 09:15:28;;;;;;;;;4.50;4.25;;;;;15.27;33.24;98758.06;4962924;28;103368;-74
2023/04/28 09:18:01;;;;;;;;;4.00;4.00;;;;;14.97;34.07;98749.81;4963830;28;101649;-76
2023/04/28 09:20:30;;;;;;;;;3.00;2.00;;;;;14.94;34.05;98735.81;4965579;28;101988;-75
2023/04/28 09:23:13;;;;;;;;;3.75;2.00;;;;;15.04;34.00;98747.81;4965968;28;102017;-74
2023/04/28 09:25:40;;;;;;;;;3.00;2.00;;;;;14.93;37.21;98753.19;4963776;28;107938;-75
2023/04/28 09:28:20;;;;;;;;;3.50;3.00;;;;;14.99;35.42;98739.53;4963145;28;101586;-74
2023/04/28 09:30:47;;;;;;;;;3.00;3.00;;;;;15.03;34.38;98739.91;4961332;28;101856;-75
2023/04/28 09:33:15;;;;;;;;;5.00;4.00;;;;;15.14;34.27;98736.41;4961932;28;101796;-75
2023/04/28 09:35:44;;;;;;;;;3.50;3.00;;;;;15.03;34.42;98735.28;4963767;28;103327;-76
2023/04/28 09:38:11;;;;;;;;;3.00;2.50;;;;;14.99;34.67;98723.19;4953996;28;101435;-76
2023/04/28 09:40:58;;;;;;;;;3.00;3.00;;;;;15.37;36.33;98733.00;4962343;28;101566;-76
2023/04/28 09:43:27;;;;;;;;;2.75;1.50;;;;;15.60;36.24;98725.81;4968979;28;101900;-76
2023/04/28 09:45:55;;;;;;;;;5.50;5.25;;;;;15.48;34.19;98727.63;4963851;28;103422;-76
2023/04/28 09:48:34;;;;;;;;;3.00;2.50;;;;;15.73;34.22;98724.78;4969193;28;102381;-76
2023/04/28 09:51:06;;;;;;;;;7.75;5.00;;;;;15.01;33.49;98717.50;4961073;28;102349;-76
2023/04/28 09:53:36;;;;;;;;;8.50;7.75;;;;;15.07;33.82;98722.88;4963636;28;101548;-75
2023/04/28 09:56:04;;;;;;;;;10.25;9.25;;;;;14.96;40.49;98709.19;4961145;28;103389;-75
2023/04/28 09:58:34;;;;;;;;;7.00;6.00;;;;;15.49;37.81;98701.22;4960346;28;101410;-74
2023/04/28 10:01:02;;;;;;;;;8.50;7.50;;;;;15.64;36.04;98712.56;4966035;28;101532;-75
2023/04/28 10:03:30;;;;;;;;;3.75;3.75;;;;;15.94;33.85;98698.94;4973312;28;101567;-76
2023/04/28 10:05:58;;;;;;;;;6.25;5.75;;;;;16.08;34.79;98690.28;4957907;28;103418;-75
2023/04/28 10:08:26;;;;;;;;;7.25;5.75;;;;;15.72;33.32;98690.41;4968601;27;101899;-75
2023/04/28 10:10:55;;;;;;;;;5.25;5.00;;;;;15.90;35.35;98686.78;4960197;28;101802;-75
2023/04/28 10:13:23;;;;;;;;;5.75;3.00;;;;;16.11;33.63;98679.97;4963625;28;101457;-75
2023/04/28 10:15:54;;;;;;;;;5.00;5.00;;;;;16.21;33.05;98682.97;4964119;28;103290;-77
2023/04/28 10:18:23;;;;;;;;;5.00;5.00;;;;;16.19;37.33;98674.16;4966435;28;101513;-76
2023/04/28 10:20:57;;;;;;;;;6.00;5.00;;;;;16.04;36.34;98661.81;4969378;28;101821;-74
2023/04/28 10:23:41;;;;;;;;;2.00;2.00;;;;;16.39;33.45;98671.94;4963630;28;101557;-75
2023/04/28 10:26:13;;;;;;;;;4.75;4.00;;;;;16.42;32.77;98669.56;4964669;28;103406;-75
2023/04/28 10:28:47;;;;;;;;;7.75;6.75;;;;;16.24;33.41;98660.66;4957834;28;101813;-75
2023/04/28 10:31:16;;;;;;;;;5.25;4.50;;;;;16.38;36.87;98670.28;4958671;28;101759;-75
2023/04/28 10:33:44;;;;;;;;;4.00;3.00;;;;;16.58;35.02;98661.75;4971053;28;103032;-74
2023/04/28 10:36:30;;;;;;;;;5.00;5.00;;;;;16.55;35.25;98659.47;4966349;28;107768;-75
2023/04/28 10:39:11;;;;;;;;;5.50;5.50;;;;;16.26;36.71;98647.59;4958425;28;101462;-75
2023/04/28 10:41:38;;;;;;;;;3.00;3.00;;;;;16.58;35.58;98648.09;4964917;28;101728;-76
2023/04/28 10:44:26;;;;;;;;;5.25;5.25;;;;;16.66;36.38;98637.66;4964954;28;102596;-76
2023/04/28 10:47:05;;;;;;;;;4.50;4.00;;;;;16.89;34.71;98642.25;4960517;28;107955;-75
2023/04/28 10:49:57;;;;;;;;;4.00;4.00;;;;;17.10;35.94;98638.88;4965261;28;101744;-75
2023/04/28 10:52:50;;;;;;;;;3.67;3.67;;;;;17.28;35.50;98646.09;4967497;28;101733;-75
2023/04/28 10:55:35;;;;;;;;;9.25;8.00;;;;;16.69;33.94;98623.53;4955082;28;101624;-76
2023/04/28 10:58:28;;;;;;;;;7.25;7.00;;;;;16.60;33.70;98622.25;4963890;28;103501;-75
2023/04/28 11:01:21;;;;;;;;;7.75;7.00;;;;;16.36;33.06;98615.09;4954232;28;101624;-76
2023/04/28 11:06:40;;;;;;;;;13.50;10.75;;;;;14.82;36.34;98618.66;4968271;28;101501;-74
2023/04/28 11:09:13;;;;;;;;;10.25;8.25;;;;;14.94;36.94;98614.13;4948959;28;103321;-75
2023/04/28 11:11:59;;;;;;;;;9.75;9.25;;;;;15.40;36.66;98609.94;4963867;28;101701;-75
2023/04/28 11:14:28;;;;;;;;;6.75;6.00;;;;;15.82;35.21;98611.63;4962600;28;101813;-74
2023/04/28 11:17:01;;;;;;;;;5.00;4.00;;;;;16.24;37.07;98596.00;4960708;28;101933;-76
2023/04/28 11:19:36;;;;;;;;;7.00;6.00;;;;;16.31;37.42;98590.41;4961637;28;103671;-76
2023/04/28 11:22:10;;;;;;;;;4.00;4.00;;;;;16.61;34.37;98595.78;4965197;28;101554;-74
2023/04/28 11:24:37;;;;;;;;;3.00;3.00;;;;;16.88;35.52;98597.75;4963930;28;101558;-74
2023/04/28 11:27:04;;;;;;;;;4.00;3.00;;;;;16.79;35.19;98593.72;4975881;28;101730;-75
2023/04/28 11:29:37;;;;;;;;;8.25;7.50;;;;;16.55;34.14;98589.34;4961477;28;103318;-74
2023/04/28 11:32:08;;;;;;;;;10.25;10.00;;;;;16.41;33.54;98582.47;4959010;28;105711;-75
2023/04/28 11:34:36;;;;;;;;;8.25;8.25;;;;;16.49;35.14;98579.38;4961089;28;101839;-75